Time;durP1;ratioP1;P1;durP2;ratioP2;P2;SDS_P1;SDS_P2;PMS_P1;PMS_P2;Temp;Humidity;BMP_temperature;BMP_pressure;BME280_temperature;BME280_humidity;BME280_pressure;Samples;Min_cycle;Max_cycle;Signal;HPM_P1;HPM_P2
2021/06/19 00:01:41;;;;;;;10.40;8.90;;;22.20;99.90;;;;;;5106127;28;20838;-76
2021/06/19 00:04:07;;;;;;;11.55;8.98;;;22.20;99.90;;;;;;5097292;28;20031;-76
2021/06/19 00:06:32;;;;;;;14.73;8.95;;;22.20;99.30;;;;;;5096379;27;20131;-76
2021/06/19 00:08:58;;;;;;;10.60;9.02;;;22.10;99.00;;;;;;5109259;28;20175;-76
2021/06/19 00:11:23;;;;;;;12.05;9.15;;;22.20;99.90;;;;;;5107939;28;20031;-76
2021/06/19 00:13:49;;;;;;;16.48;10.10;;;22.10;99.00;;;;;;5104393;28;20153;-76
2021/06/19 00:16:14;;;;;;;13.02;9.50;;;22.10;98.50;;;;;;5106266;28;20028;-76
2021/06/19 00:18:40;;;;;;;14.70;9.10;;;22.10;98.20;;;;;;5098217;28;20547;-77
2021/06/19 00:21:05;;;;;;;12.57;9.07;;;22.00;99.00;;;;;;5110064;28;20096;-76
2021/06/19 00:23:31;;;;;;;15.63;10.25;;;22.00;99.20;;;;;;5096620;28;20427;-76
2021/06/19 00:26:00;;;;;;;18.88;11.10;;;22.00;99.70;;;;;;5099048;28;20077;-76
2021/06/19 00:28:27;;;;;;;22.40;12.30;;;21.90;99.80;;;;;;5103855;28;20538;-76
2021/06/19 00:30:52;;;;;;;19.52;11.95;;;21.90;99.50;;;;;;5110909;28;20482;-76
2021/06/19 00:33:18;;;;;;;20.67;11.90;;;21.90;99.90;;;;;;5106303;28;20026;-76
2021/06/19 00:35:43;;;;;;;21.95;12.90;;;21.90;99.90;;;;;;5096325;28;20555;-76
2021/06/19 00:38:09;;;;;;;21.77;12.80;;;21.80;99.20;;;;;;5104730;28;20753;-76
2021/06/19 00:40:34;;;;;;;20.08;12.63;;;21.80;99.90;;;;;;5101725;28;20039;-77
2021/06/19 00:43:03;;;;;;;21.42;13.63;;;21.70;99.90;;;;;;5094559;28;20023;-76
2021/06/19 00:45:31;;;;;;;23.50;13.93;;;21.70;99.90;;;;;;5097760;28;20092;-77
2021/06/19 00:47:58;;;;;;;21.38;12.82;;;21.70;99.90;;;;;;5108748;28;20038;-76
2021/06/19 00:50:25;;;;;;;21.58;13.00;;;21.70;99.90;;;;;;5106442;28;20023;-76
2021/06/19 00:52:51;;;;;;;21.48;12.45;;;21.60;99.90;;;;;;5102289;28;20489;-76
2021/06/19 00:55:17;;;;;;;22.58;12.15;;;21.60;99.90;;;;;;5105157;28;20023;-76
2021/06/19 00:57:44;;;;;;;19.50;12.43;;;21.60;99.90;;;;;;5097497;28;20039;-76
2021/06/19 01:00:11;;;;;;;17.25;11.20;;;21.50;99.90;;;;;;5099774;28;20119;-76
2021/06/19 01:02:37;;;;;;;19.08;12.00;;;21.60;99.90;;;;;;5103981;28;20028;-76
2021/06/19 01:05:08;;;;;;;16.55;11.45;;;21.40;99.90;;;;;;5090636;28;20043;-76
2021/06/19 01:07:34;;;;;;;20.30;10.80;;;21.40;99.90;;;;;;5104319;28;20035;-76
2021/06/19 01:10:00;;;;;;;15.52;10.82;;;21.40;99.90;;;;;;5102602;28;20177;-76
2021/06/19 01:12:26;;;;;;;19.00;11.15;;;21.40;99.90;;;;;;5099834;28;20102;-76
2021/06/19 01:14:53;;;;;;;15.60;11.05;;;21.30;99.90;;;;;;5101276;28;20020;-76
2021/06/19 01:17:20;;;;;;;15.80;11.07;;;21.30;99.90;;;;;;5099613;28;20118;-76
2021/06/19 01:19:57;;;;;;;16.95;10.57;;;21.30;99.90;;;;;;5107584;28;20038;-76
2021/06/19 01:22:23;;;;;;;17.10;10.35;;;21.30;99.90;;;;;;5101328;28;20025;-76
2021/06/19 01:24:51;;;;;;;15.75;10.68;;;21.30;99.90;;;;;;5101579;28;20020;-76
2021/06/19 01:27:16;;;;;;;17.00;10.25;;;21.20;99.90;;;;;;5109081;28;20031;-77
2021/06/19 01:29:42;;;;;;;14.35;10.30;;;21.20;99.90;;;;;;5102917;28;20035;-76
2021/06/19 01:32:07;;;;;;;17.08;10.43;;;21.20;99.90;;;;;;5089913;28;20035;-76
2021/06/19 01:34:33;;;;;;;13.98;10.15;;;21.20;99.90;;;;;;5095186;28;20456;-76
2021/06/19 01:36:58;;;;;;;14.93;10.65;;;21.20;99.90;;;;;;5109952;28;20468;-76
2021/06/19 01:39:24;;;;;;;13.25;9.50;;;21.10;99.90;;;;;;5098356;28;20030;-76
2021/06/19 01:41:49;;;;;;;13.18;9.20;;;21.10;99.90;;;;;;5100381;28;20028;-76
2021/06/19 01:44:15;;;;;;;13.38;9.27;;;21.10;99.90;;;;;;5102202;28;20460;-76
2021/06/19 01:46:41;;;;;;;16.80;10.00;;;21.00;99.90;;;;;;5106198;28;20023;-76
2021/06/19 01:49:15;;;;;;;14.15;9.40;;;21.00;99.90;;;;;;5099684;28;20028;-76
2021/06/19 01:51:41;;;;;;;16.83;10.50;;;21.00;99.90;;;;;;5092919;28;20478;-77
2021/06/19 01:54:07;;;;;;;13.38;9.57;;;20.90;99.90;;;;;;5097524;28;20032;-76
2021/06/19 01:56:32;;;;;;;12.00;9.30;;;20.90;99.90;;;;;;5101455;28;20024;-76
2021/06/19 01:58:58;;;;;;;11.95;9.38;;;20.90;99.90;;;;;;5098330;28;20036;-76
2021/06/19 02:01:23;;;;;;;13.75;9.88;;;20.80;99.90;;;;;;5105399;28;20096;-76
2021/06/19 02:03:49;;;;;;;15.60;9.48;;;20.80;99.90;;;;;;5104494;28;20486;-76
2021/06/19 02:06:15;;;;;;;12.55;9.07;;;20.80;99.90;;;;;;5094195;28;20042;-76
2021/06/19 02:08:41;;;;;;;13.35;8.65;;;20.80;99.90;;;;;;5090926;28;20436;-76
2021/06/19 02:11:07;;;;;;;12.43;9.77;;;20.80;99.90;;;;;;5093377;28;20028;-77
2021/06/19 02:13:37;;;;;;;10.43;9.27;;;20.70;99.90;;;;;;5093202;28;20541;-76
2021/06/19 02:16:04;;;;;;;11.63;9.07;;;20.70;99.90;;;;;;5104560;28;20039;-76
2021/06/19 02:18:30;;;;;;;11.32;8.88;;;20.70;99.90;;;;;;5103943;28;20036;-76
2021/06/19 02:20:55;;;;;;;13.13;9.85;;;20.70;99.90;;;;;;5106101;28;20442;-76
2021/06/19 02:23:25;;;;;;;11.82;9.25;;;20.60;99.90;;;;;;5100297;28;20074;-76
2021/06/19 02:25:52;;;;;;;12.35;9.30;;;20.60;99.90;;;;;;5108456;28;20038;-76
2021/06/19 02:28:20;;;;;;;15.38;9.45;;;20.60;99.90;;;;;;5100376;28;20038;-77
2021/06/19 02:30:48;;;;;;;13.95;9.70;;;20.50;99.90;;;;;;5104137;28;20030;-76
2021/06/19 02:33:14;;;;;;;18.10;10.05;;;20.50;99.90;;;;;;5100774;28;20028;-76
2021/06/19 02:35:42;;;;;;;19.40;8.85;;;20.50;99.90;;;;;;5100643;28;20478;-77
2021/06/19 02:38:09;;;;;;;12.65;9.32;;;20.50;99.90;;;;;;5109078;28;20374;-76
2021/06/19 02:40:35;;;;;;;12.20;9.07;;;20.50;99.90;;;;;;5100494;28;20032;-76
2021/06/19 02:43:01;;;;;;;20.65;9.77;;;20.50;99.90;;;;;;5107265;28;20031;-76
2021/06/19 02:45:27;;;;;;;14.20;9.20;;;20.50;99.90;;;;;;5094306;28;20725;-76
2021/06/19 02:47:55;;;;;;;11.43;9.20;;;20.40;99.90;;;;;;5107861;28;20028;-76
2021/06/19 02:50:26;;;;;;;12.77;8.98;;;20.40;99.90;;;;;;5105068;28;20059;-76
2021/06/19 02:52:52;;;;;;;10.80;8.90;;;20.40;99.90;;;;;;5097510;28;20055;-76
2021/06/19 02:55:20;;;;;;;15.13;8.98;;;20.40;99.90;;;;;;5094728;28;20502;-76
2021/06/19 02:57:46;;;;;;;12.15;9.18;;;20.40;99.90;;;;;;5103201;28;20084;-77
2021/06/19 03:00:14;;;;;;;11.43;9.32;;;20.30;99.90;;;;;;5097152;28;20092;-76
2021/06/19 03:02:40;;;;;;;11.50;8.80;;;20.30;99.90;;;;;;5098401;28;20084;-76
2021/06/19 03:05:08;;;;;;;11.55;8.68;;;20.30;99.90;;;;;;5101148;28;20034;-76
2021/06/19 03:07:33;;;;;;;12.23;9.18;;;20.30;99.90;;;;;;5095817;28;20490;-76
2021/06/19 03:09:59;;;;;;;16.17;9.05;;;20.20;99.90;;;;;;5100351;28;20035;-76
2021/06/19 03:12:26;;;;;;;10.20;8.27;;;20.30;99.90;;;;;;5091543;28;20544;-76
2021/06/19 03:14:53;;;;;;;17.02;9.32;;;20.30;99.90;;;;;;5099544;28;20359;-76
2021/06/19 03:17:18;;;;;;;12.77;9.18;;;20.40;99.90;;;;;;5107406;28;20461;-76
2021/06/19 03:19:43;;;;;;;11.55;8.90;;;20.40;99.90;;;;;;5107228;28;20107;-76
2021/06/19 03:22:09;;;;;;;12.48;8.95;;;20.40;99.90;;;;;;5093853;28;20089;-76
2021/06/19 03:24:39;;;;;;;12.10;9.25;;;20.40;99.90;;;;;;5092179;28;20111;-76
2021/06/19 03:27:05;;;;;;;10.90;9.05;;;20.40;99.90;;;;;;5098084;28;20517;-76
2021/06/19 03:29:31;;;;;;;13.43;9.27;;;20.30;99.90;;;;;;5093599;28;20028;-76
2021/06/19 03:31:56;;;;;;;12.90;9.20;;;20.30;99.90;;;;;;5094513;27;20478;-76
2021/06/19 03:34:22;;;;;;;14.70;9.32;;;20.30;99.90;;;;;;5098773;28;20386;-76
2021/06/19 03:36:48;;;;;;;10.20;9.05;;;20.30;99.90;;;;;;5097280;28;20103;-76
2021/06/19 03:39:15;;;;;;;12.07;9.00;;;20.30;99.90;;;;;;5106749;28;20502;-76
2021/06/19 03:41:42;;;;;;;12.55;10.07;;;20.30;99.90;;;;;;5095939;28;20103;-76
2021/06/19 03:44:10;;;;;;;12.95;9.63;;;20.30;99.90;;;;;;5100134;28;20052;-76
2021/06/19 03:46:37;;;;;;;11.07;9.00;;;20.30;99.90;;;;;;5097831;28;20039;-76
2021/06/19 03:49:03;;;;;;;11.95;9.38;;;20.30;99.90;;;;;;5093092;28;20067;-76
2021/06/19 03:51:28;;;;;;;13.88;9.90;;;20.40;99.90;;;;;;5106542;28;20116;-76
2021/06/19 03:53:53;;;;;;;14.00;9.50;;;20.40;99.90;;;;;;5097483;28;20031;-76
2021/06/19 03:56:19;;;;;;;13.65;9.45;;;20.40;99.90;;;;;;5099998;28;20095;-76
2021/06/19 03:58:44;;;;;;;17.10;9.63;;;20.40;99.90;;;;;;5100765;27;20032;-76
2021/06/19 04:01:11;;;;;;;11.35;8.63;;;20.40;99.90;;;;;;5103526;28;20089;-76
2021/06/19 04:03:37;;;;;;;13.05;8.93;;;20.40;99.90;;;;;;5100624;28;20032;-76
2021/06/19 04:06:02;;;;;;;11.13;9.88;;;20.50;99.90;;;;;;5097866;28;20553;-76
2021/06/19 04:08:28;;;;;;;14.25;9.98;;;20.50;99.90;;;;;;5107916;28;20055;-76
2021/06/19 04:10:54;;;;;;;17.52;9.85;;;20.60;99.90;;;;;;5099617;28;20020;-76
2021/06/19 04:13:19;;;;;;;12.52;9.15;;;20.60;99.90;;;;;;5103500;28;20027;-76
2021/06/19 04:15:45;;;;;;;11.43;8.93;;;20.60;99.90;;;;;;5111473;28;20098;-76
2021/06/19 04:18:10;;;;;;;14.52;9.68;;;20.70;99.90;;;;;;5099140;28;20032;-76
2021/06/19 04:20:36;;;;;;;14.27;9.60;;;20.70;99.90;;;;;;5103144;28;20024;-76
2021/06/19 04:23:01;;;;;;;14.68;9.90;;;20.70;99.90;;;;;;5093380;28;20028;-76
2021/06/19 04:25:27;;;;;;;11.65;9.25;;;20.70;99.90;;;;;;5099832;28;20109;-76
2021/06/19 04:27:54;;;;;;;14.10;9.52;;;20.80;99.90;;;;;;5099112;28;20058;-76
2021/06/19 04:30:22;;;;;;;12.40;9.73;;;20.80;99.90;;;;;;5093194;28;20031;-76
2021/06/19 04:32:48;;;;;;;11.15;9.68;;;20.90;99.90;;;;;;5109188;27;20538;-76
2021/06/19 04:35:15;;;;;;;10.35;9.02;;;20.90;99.90;;;;;;5099899;28;20027;-76
2021/06/19 04:37:41;;;;;;;13.00;9.88;;;21.00;99.90;;;;;;5098455;28;20027;-76
2021/06/19 04:42:57;;;;;;;14.68;9.48;;;21.10;99.90;;;;;;5109308;28;20067;-76
2021/06/19 04:45:23;;;;;;;16.05;10.10;;;21.20;99.90;;;;;;5101524;28;20123;-76
2021/06/19 04:47:48;;;;;;;12.57;8.85;;;21.30;99.90;;;;;;5093445;28;20110;-76
2021/06/19 04:50:14;;;;;;;13.50;9.25;;;21.30;99.90;;;;;;5106480;28;20465;-76
2021/06/19 04:52:41;;;;;;;12.32;9.35;;;21.40;99.90;;;;;;5103621;28;20027;-76
2021/06/19 04:55:11;;;;;;;13.43;9.43;;;21.60;99.90;;;;;;5099778;28;20036;-76
2021/06/19 04:57:36;;;;;;;11.23;8.80;;;21.70;99.90;;;;;;5105380;28;20034;-76
2021/06/19 05:00:03;;;;;;;9.88;8.52;;;21.80;99.90;;;;;;5091671;28;20031;-76
2021/06/19 05:02:28;;;;;;;13.75;8.75;;;21.90;99.90;;;;;;5103529;27;20027;-76
2021/06/19 05:04:54;;;;;;;13.65;8.45;;;21.90;99.90;;;;;;5107494;28;20031;-76
2021/06/19 05:07:19;;;;;;;9.68;8.60;;;22.00;98.80;;;;;;5096353;28;20130;-76
2021/06/19 05:09:45;;;;;;;10.38;8.48;;;22.10;99.00;;;;;;5097269;28;20172;-76
2021/06/19 05:12:11;;;;;;;12.52;9.10;;;22.10;98.10;;;;;;5102467;28;20039;-76
2021/06/19 05:14:36;;;;;;;13.60;8.68;;;22.20;96.80;;;;;;5098345;27;20016;-76
2021/06/19 05:17:02;;;;;;;18.38;9.15;;;22.30;96.50;;;;;;5101710;27;20508;-76
2021/06/19 05:19:28;;;;;;;10.27;8.38;;;22.40;96.10;;;;;;5103493;28;20355;-76
2021/06/19 05:21:53;;;;;;;11.10;8.25;;;22.40;96.00;;;;;;5095013;28;20478;-76
2021/06/19 05:27:18;;;;;;;15.05;8.52;;;22.50;96.30;;;;;;5081217;28;20032;-76
2021/06/19 05:29:43;;;;;;;12.18;8.75;;;22.50;95.90;;;;;;5097372;28;20666;-77
2021/06/19 05:32:18;;;;;;;12.05;8.80;;;22.60;95.50;;;;;;5095371;27;20050;-74
2021/06/19 05:34:43;;;;;;;10.02;8.65;;;22.70;95.00;;;;;;5104060;28;20445;-74
2021/06/19 05:37:09;;;;;;;13.88;9.10;;;22.80;94.50;;;;;;5101683;28;20117;-74
2021/06/19 05:39:38;;;;;;;12.27;8.77;;;22.80;94.50;;;;;;5103697;28;20484;-75
2021/06/19 05:42:04;;;;;;;9.75;8.75;;;22.90;93.80;;;;;;5098822;28;20069;-75
2021/06/19 05:44:30;;;;;;;11.18;9.00;;;23.00;93.20;;;;;;5101238;28;20066;-75
2021/06/19 05:46:55;;;;;;;11.85;8.57;;;23.00;93.20;;;;;;5103598;28;20494;-75
2021/06/19 05:49:21;;;;;;;13.68;8.25;;;23.10;93.20;;;;;;5099027;28;20173;-75
2021/06/19 05:51:46;;;;;;;13.55;8.18;;;23.10;92.30;;;;;;5088408;28;20019;-75
2021/06/19 05:54:12;;;;;;;13.07;7.95;;;23.20;92.80;;;;;;5089456;28;20387;-75
2021/06/19 05:56:37;;;;;;;12.23;8.48;;;23.30;92.50;;;;;;5098228;28;20113;-75
2021/06/19 05:59:03;;;;;;;14.65;8.63;;;23.30;92.70;;;;;;5104320;28;20031;-75
2021/06/19 06:01:31;;;;;;;9.85;8.45;;;23.30;92.40;;;;;;5091296;28;20722;-75
2021/06/19 06:04:03;;;;;;;12.02;8.48;;;23.40;92.20;;;;;;5103000;28;20115;-74
2021/06/19 06:06:28;;;;;;;10.25;9.05;;;23.40;92.40;;;;;;5096853;28;20060;-76
2021/06/19 06:08:54;;;;;;;10.45;8.93;;;23.50;92.20;;;;;;5104761;28;20531;-75
2021/06/19 06:11:20;;;;;;;10.27;8.75;;;23.50;92.00;;;;;;5106243;28;20030;-75
2021/06/19 06:13:45;;;;;;;9.50;8.18;;;23.60;91.70;;;;;;5098265;28;20027;-76
2021/06/19 06:16:11;;;;;;;10.82;8.50;;;23.60;91.30;;;;;;5096402;28;20073;-76
2021/06/19 06:18:37;;;;;;;10.63;8.85;;;23.70;91.00;;;;;;5105052;28;20051;-75
2021/06/19 06:21:03;;;;;;;10.75;8.82;;;23.80;91.00;;;;;;5107344;28;20039;-74
2021/06/19 06:23:29;;;;;;;13.77;8.80;;;23.80;91.00;;;;;;5108539;28;20032;-76
2021/06/19 06:25:55;;;;;;;9.65;8.55;;;23.80;90.70;;;;;;5106806;28;20026;-77
2021/06/19 06:28:20;;;;;;;10.77;9.50;;;23.90;90.60;;;;;;5103549;28;20028;-74
2021/06/19 06:30:47;;;;;;;10.90;8.85;;;23.90;90.30;;;;;;5108892;28;20632;-75
2021/06/19 06:33:12;;;;;;;11.25;8.88;;;24.00;90.40;;;;;;5103846;28;20068;-76
2021/06/19 06:35:38;;;;;;;10.65;8.98;;;24.00;90.60;;;;;;5104599;28;20616;-75
2021/06/19 06:38:03;;;;;;;10.57;8.85;;;24.10;90.70;;;;;;5092402;28;20063;-75
2021/06/19 06:40:29;;;;;;;11.73;9.02;;;24.10;90.20;;;;;;5094092;28;20504;-75
2021/06/19 06:42:55;;;;;;;11.65;8.52;;;24.20;90.10;;;;;;5104796;28;20065;-74
2021/06/19 06:45:21;;;;;;;11.65;9.10;;;24.20;89.20;;;;;;5108956;28;20069;-74
2021/06/19 06:47:47;;;;;;;15.43;9.23;;;24.20;88.90;;;;;;5105158;28;20501;-76
2021/06/19 06:50:13;;;;;;;11.98;8.68;;;24.30;88.40;;;;;;5105355;28;20038;-75
2021/06/19 06:52:39;;;;;;;13.55;8.65;;;24.30;89.20;;;;;;5102359;28;20186;-74
2021/06/19 06:55:07;;;;;;;11.45;7.03;;;24.40;88.60;;;;;;5098672;28;20411;-75
2021/06/19 06:57:33;;;;;;;10.57;8.73;;;24.40;87.10;;;;;;5102080;28;20441;-75
2021/06/19 06:59:58;;;;;;;12.70;8.25;;;24.50;85.60;;;;;;5107289;28;20012;-74
2021/06/19 07:02:24;;;;;;;11.52;8.88;;;24.60;85.00;;;;;;5107004;28;20359;-74
2021/06/19 07:04:50;;;;;;;10.68;8.43;;;24.60;85.30;;;;;;5102758;28;20459;-75
2021/06/19 07:07:16;;;;;;;8.13;7.28;;;24.60;85.40;;;;;;5105678;28;20040;-74
2021/06/19 07:09:41;;;;;;;10.82;8.93;;;24.70;84.90;;;;;;5098128;28;20031;-75
2021/06/19 07:12:08;;;;;;;9.25;7.75;;;24.70;85.50;;;;;;5106341;28;20492;-75
2021/06/19 07:14:34;;;;;;;12.07;7.78;;;24.80;83.50;;;;;;5110812;28;20363;-75
2021/06/19 07:17:19;;;;;;;11.52;8.50;;;24.90;83.00;;;;;;5110809;28;20032;-75
2021/06/19 07:19:45;;;;;;;5.50;5.00;;;25.10;81.30;;;;;;5101236;28;20042;-75
2021/06/19 07:22:10;;;;;;;5.85;4.75;;;25.10;79.80;;;;;;5105470;28;20393;-75
2021/06/19 07:24:36;;;;;;;5.53;4.95;;;25.00;79.00;;;;;;5107530;28;20088;-75
2021/06/19 07:27:03;;;;;;;10.00;6.90;;;24.90;79.60;;;;;;5105430;28;20486;-75
2021/06/19 07:29:29;;;;;;;11.40;8.73;;;24.90;82.40;;;;;;5100788;28;20031;-75
2021/06/19 07:31:54;;;;;;;9.20;6.47;;;25.00;84.40;;;;;;5100897;28;20031;-79
2021/06/19 07:34:20;;;;;;;9.45;8.45;;;25.10;82.10;;;;;;5104221;28;20027;-74
2021/06/19 07:36:45;;;;;;;8.45;6.47;;;25.20;81.70;;;;;;5107821;28;20024;-74
2021/06/19 07:39:12;;;;;;;8.88;6.18;;;25.30;82.50;;;;;;5105603;27;20364;-75
2021/06/19 07:41:38;;;;;;;4.78;4.20;;;25.40;81.20;;;;;;5107951;28;20027;-74
2021/06/19 07:44:04;;;;;;;8.57;7.35;;;25.30;80.30;;;;;;5102227;28;20046;-74
2021/06/19 07:46:30;;;;;;;5.97;5.15;;;25.40;82.80;;;;;;5108566;28;20084;-77
2021/06/19 07:48:55;;;;;;;8.23;6.57;;;25.40;80.70;;;;;;5101117;28;20023;-76
2021/06/19 07:51:21;;;;;;;10.90;7.00;;;25.40;83.30;;;;;;5105046;28;20022;-79
2021/06/19 07:53:46;;;;;;;7.30;5.70;;;25.60;80.80;;;;;;5103160;28;20176;-75
2021/06/19 07:56:12;;;;;;;8.90;7.50;;;25.70;78.90;;;;;;5110168;28;20022;-74
2021/06/19 07:58:37;;;;;;;5.20;4.60;;;25.70;81.40;;;;;;5103475;28;20057;-75
2021/06/19 08:01:03;;;;;;;12.52;8.20;;;25.80;75.50;;;;;;5104584;28;20034;-82
2021/06/19 08:03:28;;;;;;;6.07;5.47;;;25.70;82.80;;;;;;5105122;28;20039;-76
2021/06/19 08:05:55;;;;;;;15.27;8.25;;;25.70;77.90;;;;;;5098854;28;20027;-76
2021/06/19 08:08:23;;;;;;;5.10;4.60;;;25.70;79.70;;;;;;5108961;28;20047;-81
2021/06/19 08:10:50;;;;;;;6.82;6.13;;;25.90;77.50;;;;;;5102693;28;20020;-85
2021/06/19 08:13:16;;;;;;;8.25;6.78;;;26.10;78.60;;;;;;5110033;27;20042;-79
2021/06/19 08:15:41;;;;;;;6.78;5.30;;;26.20;81.50;;;;;;5107241;28;20020;-89
2021/06/19 08:18:07;;;;;;;8.85;6.40;;;26.30;79.50;;;;;;5097547;28;20063;-77
2021/06/19 08:20:33;;;;;;;7.40;5.30;;;26.30;76.90;;;;;;5092017;28;20409;-78
2021/06/19 08:22:58;;;;;;;8.70;6.53;;;26.40;75.80;;;;;;5096798;28;20111;-77
2021/06/19 08:25:24;;;;;;;9.30;6.40;;;26.50;76.00;;;;;;5104222;28;20024;-77
2021/06/19 08:27:50;;;;;;;8.40;4.82;;;26.50;78.70;;;;;;5095323;28;20036;-78
2021/06/19 08:30:15;;;;;;;5.93;5.30;;;26.60;73.10;;;;;;5098094;28;20031;-73
2021/06/19 08:32:41;;;;;;;6.50;5.80;;;26.70;72.40;;;;;;5100182;28;20031;-76
2021/06/19 08:35:07;;;;;;;5.57;4.90;;;26.60;76.90;;;;;;5092526;28;20038;-77
2021/06/19 08:37:33;;;;;;;8.13;6.40;;;26.80;71.60;;;;;;5098891;28;20035;-76
2021/06/19 08:39:58;;;;;;;5.28;4.78;;;26.80;72.50;;;;;;5105121;28;20016;-77
2021/06/19 08:42:25;;;;;;;5.82;4.75;;;26.80;71.10;;;;;;5103917;28;20428;-79
2021/06/19 08:44:51;;;;;;;6.07;4.75;;;26.70;71.80;;;;;;5105749;27;20024;-77
2021/06/19 08:47:17;;;;;;;5.93;5.30;;;26.70;71.10;;;;;;5093698;28;20372;-76
2021/06/19 08:49:45;;;;;;;6.40;5.65;;;27.00;70.90;;;;;;5095881;28;20038;-79
2021/06/19 08:52:10;;;;;;;8.13;6.60;;;27.00;69.30;;;;;;5105997;28;20431;-78
2021/06/19 08:54:39;;;;;;;8.57;7.35;;;26.90;72.50;;;;;;5097824;28;20030;-78
2021/06/19 08:57:06;;;;;;;9.73;5.97;;;27.10;69.60;;;;;;5098835;28;20028;-78
2021/06/19 08:59:31;;;;;;;8.45;5.55;;;27.30;67.60;;;;;;5094905;28;20035;-79
2021/06/19 09:01:57;;;;;;;5.78;5.07;;;27.30;67.40;;;;;;5104672;28;20023;-78
2021/06/19 09:04:22;;;;;;;7.57;5.40;;;27.30;67.20;;;;;;5091134;28;20025;-75
2021/06/19 09:06:48;;;;;;;6.75;5.47;;;27.20;66.20;;;;;;5092501;27;20044;-76
2021/06/19 09:09:16;;;;;;;5.45;4.85;;;27.20;66.30;;;;;;5101240;27;20028;-75
2021/06/19 09:11:49;;;;;;;7.90;5.43;;;27.10;65.70;;;;;;5098280;28;20016;-76
2021/06/19 09:14:20;;;;;;;12.15;7.10;;;27.00;71.60;;;;;;5094604;28;20487;-76
2021/06/19 09:17:07;;;;;;;9.07;6.43;;;27.20;67.00;;;;;;5102880;28;20026;-75
2021/06/19 09:19:36;;;;;;;6.25;5.65;;;27.30;67.60;;;;;;5096232;28;20576;-74
2021/06/19 09:22:15;;;;;;;5.97;4.90;;;27.40;66.30;;;;;;5098403;28;20035;-72
2021/06/19 09:24:49;;;;;;;7.53;5.90;;;27.40;64.90;;;;;;5098239;28;20260;-80
2021/06/19 09:27:37;;;;;;;6.10;5.45;;;27.30;64.80;;;;;;5096299;28;20036;-76
2021/06/19 09:30:14;;;;;;;5.32;4.82;;;27.40;64.70;;;;;;5096652;28;20482;-73
2021/06/19 09:32:41;;;;;;;6.15;5.30;;;27.40;63.80;;;;;;5097576;28;20035;-74
2021/06/19 09:35:25;;;;;;;5.40;4.88;;;27.50;63.90;;;;;;5103462;28;20501;-75
2021/06/19 09:37:54;;;;;;;6.63;5.38;;;27.40;64.60;;;;;;5096188;28;20110;-75
2021/06/19 09:40:23;;;;;;;7.97;5.90;;;27.30;63.80;;;;;;5101399;28;20042;-75
2021/06/19 09:42:49;;;;;;;5.78;4.68;;;27.40;62.50;;;;;;5096318;28;20390;-76
2021/06/19 09:45:23;;;;;;;5.47;4.95;;;27.60;60.40;;;;;;5092882;28;20044;-76
2021/06/19 09:47:49;;;;;;;7.15;6.20;;;27.70;61.60;;;;;;5094844;28;20122;-79
2021/06/19 09:50:19;;;;;;;5.82;5.22;;;28.00;58.00;;;;;;5098464;28;20020;-75
2021/06/19 09:52:59;;;;;;;;;;;;;;;;;;;;;
2021/06/19 09:55:29;;;;;;;6.82;5.88;;;28.20;59.60;;;;;;5098278;27;20065;-75
2021/06/19 09:57:55;;;;;;;14.52;5.93;;;28.10;59.70;;;;;;5108226;28;20585;-76
2021/06/19 10:00:21;;;;;;;5.95;5.03;;;28.20;58.80;;;;;;5099367;28;20035;-75
2021/06/19 10:02:48;;;;;;;6.38;5.32;;;28.50;56.40;;;;;;5101049;28;20038;-75
2021/06/19 10:05:13;;;;;;;5.97;4.88;;;28.70;55.70;;;;;;5104157;28;20058;-76
2021/06/19 10:07:42;;;;;;;5.10;4.70;;;28.80;56.20;;;;;;5096186;28;20044;-75
2021/06/19 10:10:12;;;;;;;5.60;4.97;;;28.60;58.20;;;;;;5097362;28;20032;-76
2021/06/19 10:12:39;;;;;;;7.38;4.78;;;28.50;55.00;;;;;;5101795;28;20043;-75
2021/06/19 10:15:08;;;;;;;5.28;4.78;;;28.70;57.20;;;;;;5102872;28;20059;-75
2021/06/19 10:17:40;;;;;;;7.97;5.53;;;28.40;57.60;;;;;;5106253;28;20027;-76
2021/06/19 10:20:08;;;;;;;6.32;4.70;;;28.50;56.30;;;;;;5102413;28;20461;-76
2021/06/19 10:22:36;;;;;;;5.78;4.53;;;28.40;58.00;;;;;;5096776;28;20476;-75
2021/06/19 10:25:06;;;;;;;5.10;4.60;;;28.40;58.10;;;;;;5107296;28;20124;-75
2021/06/19 10:27:34;;;;;;;7.22;6.22;;;28.20;58.70;;;;;;5101123;28;20049;-75
2021/06/19 10:30:01;;;;;;;6.82;5.50;;;28.40;55.50;;;;;;5096093;28;20517;-75
2021/06/19 10:32:50;;;;;;;5.47;4.90;;;28.80;56.00;;;;;;5097168;28;20047;-75
2021/06/19 10:35:22;;;;;;;8.10;6.20;;;28.90;57.40;;;;;;5098444;28;20074;-75
2021/06/19 10:37:50;;;;;;;4.75;4.35;;;29.00;55.40;;;;;;5105437;28;20024;-75
2021/06/19 10:40:18;;;;;;;5.68;5.07;;;29.40;55.10;;;;;;5095697;28;20028;-75
2021/06/19 10:42:48;;;;;;;5.40;4.90;;;29.40;55.90;;;;;;5101108;28;20362;-75
2021/06/19 10:45:23;;;;;;;6.00;5.40;;;29.60;53.80;;;;;;5110645;28;20034;-74
2021/06/19 10:48:06;;;;;;;6.03;5.43;;;30.50;51.10;;;;;;5109454;28;20114;-75
2021/06/19 10:50:36;;;;;;;6.78;5.35;;;30.90;50.20;;;;;;5100407;28;20529;-75
2021/06/19 10:53:09;;;;;;;6.07;5.00;;;31.20;50.60;;;;;;5105278;28;20040;-75
2021/06/19 10:55:53;;;;;;;5.28;4.75;;;30.80;51.40;;;;;;5100118;28;20032;-75
2021/06/19 10:58:30;;;;;;;5.57;5.07;;;30.40;52.90;;;;;;5108969;28;20041;-75
2021/06/19 11:01:04;;;;;;;5.75;4.97;;;29.80;54.10;;;;;;5104815;28;20027;-75
2021/06/19 11:03:54;;;;;;;10.18;5.55;;;29.40;54.60;;;;;;5102649;28;20028;-75
2021/06/19 11:06:31;;;;;;;5.50;5.00;;;29.60;56.10;;;;;;5105580;28;20023;-75
2021/06/19 11:09:06;;;;;;;6.47;4.47;;;30.90;48.80;;;;;;5110848;28;20181;-75
2021/06/19 11:11:55;;;;;;;5.82;5.07;;;31.80;47.30;;;;;;5100821;28;20107;-75
2021/06/19 11:14:39;;;;;;;6.00;5.28;;;32.70;45.80;;;;;;5101555;28;20398;-77
2021/06/19 11:17:05;;;;;;;5.45;4.93;;;32.50;47.50;;;;;;5103638;28;20031;-73
2021/06/19 11:19:32;;;;;;;5.97;5.38;;;31.70;48.10;;;;;;5103703;27;20024;-73
2021/06/19 11:22:39;;;;;;;5.53;5.00;;;32.10;45.90;;;;;;5101859;28;20031;-73
2021/06/19 11:25:37;;;;;;;7.25;4.55;;;33.30;44.30;;;;;;5094969;28;20062;-73
2021/06/19 11:28:28;;;;;;;6.03;5.43;;;34.20;43.10;;;;;;5105496;28;20106;-74
2021/06/19 11:31:02;;;;;;;5.00;4.50;;;34.80;41.50;;;;;;5088869;28;20072;-74
2021/06/19 11:33:38;;;;;;;5.57;4.88;;;34.90;42.70;;;;;;5108524;28;20192;-75
2021/06/19 11:36:04;;;;;;;5.30;4.80;;;34.90;42.10;;;;;;5105021;28;20043;-74
2021/06/19 11:38:46;;;;;;;4.75;4.22;;;35.80;41.80;;;;;;5110163;28;20032;-73
2021/06/19 11:41:15;;;;;;;5.40;4.90;;;35.10;42.40;;;;;;5105036;28;20028;-74
2021/06/19 11:43:41;;;;;;;5.00;4.50;;;34.60;42.30;;;;;;5103062;28;20047;-74
2021/06/19 11:46:06;;;;;;;5.70;4.80;;;34.90;42.50;;;;;;5108885;28;20072;-74
2021/06/19 11:48:47;;;;;;;9.20;4.75;;;35.00;41.10;;;;;;5096553;28;20035;-74
2021/06/19 11:51:12;;;;;;;9.18;5.07;;;35.50;39.40;;;;;;5102600;28;20028;-74
2021/06/19 11:53:38;;;;;;;7.45;5.32;;;35.50;40.10;;;;;;5106343;27;20034;-74
2021/06/19 11:56:21;;;;;;;5.03;4.53;;;35.40;40.50;;;;;;5117656;27;20452;-75
2021/06/19 11:58:58;;;;;;;5.78;5.18;;;34.80;42.50;;;;;;5105163;28;20065;-74
2021/06/19 12:01:37;;;;;;;6.38;5.20;;;34.20;43.10;;;;;;5099487;28;20485;-74
2021/06/19 12:04:05;;;;;;;5.25;4.85;;;33.80;42.50;;;;;;5103560;28;20028;-74
2021/06/19 12:06:38;;;;;;;7.53;5.68;;;33.70;44.40;;;;;;5106755;28;20034;-74
2021/06/19 12:09:07;;;;;;;6.82;5.38;;;33.30;44.70;;;;;;5110187;28;20482;-76
2021/06/19 12:11:38;;;;;;;6.38;5.78;;;33.50;44.70;;;;;;5104441;27;20056;-72
2021/06/19 12:14:30;;;;;;;6.57;5.22;;;33.20;44.30;;;;;;5106579;28;20508;-73
2021/06/19 12:17:05;;;;;;;6.00;5.30;;;33.50;44.10;;;;;;5104710;28;20688;-72
2021/06/19 12:19:34;;;;;;;5.70;5.07;;;33.70;44.50;;;;;;5101925;28;20024;-72
2021/06/19 12:22:03;;;;;;;5.57;4.88;;;33.80;44.90;;;;;;5111672;28;20027;-72
2021/06/19 12:24:37;;;;;;;5.78;4.90;;;33.60;45.40;;;;;;5105435;28;20106;-79
2021/06/19 12:27:15;;;;;;;9.68;5.47;;;33.50;45.30;;;;;;5100740;28;20024;-86
2021/06/19 12:29:57;;;;;;;7.53;5.53;;;34.10;45.50;;;;;;5095777;28;20115;-80
2021/06/19 12:32:31;;;;;;;5.10;4.70;;;34.30;44.10;;;;;;5104733;28;20063;-75
2021/06/19 12:34:59;;;;;;;6.15;5.47;;;34.00;44.70;;;;;;5097593;28;20051;-79
2021/06/19 12:37:32;;;;;;;7.50;5.50;;;34.20;45.00;;;;;;5100777;27;20103;-73
2021/06/19 12:40:01;;;;;;;5.35;4.85;;;34.70;44.00;;;;;;5100209;28;20031;-72
2021/06/19 12:42:40;;;;;;;8.30;5.07;;;34.70;43.80;;;;;;5104353;28;20038;-73
2021/06/19 12:45:35;;;;;;;5.25;4.75;;;35.60;42.70;;;;;;5096696;28;20031;-72
2021/06/19 12:48:05;;;;;;;5.65;5.10;;;35.80;43.90;;;;;;5109639;28;20032;-72
2021/06/19 12:50:30;;;;;;;15.73;6.93;;;36.90;40.70;;;;;;5106923;28;20024;-72
2021/06/19 12:53:13;;;;;;;7.07;5.80;;;38.20;39.30;;;;;;5110081;28;20064;-72